Giannis 1 — SW4051 — position and weather

sailwx.info

Track history (hours):
 
Tides and Currents Weather Stations Pressure Air Temp Water Temp Dewpoint Dewpoint Depression Visibility Wind Speed Wind Dir Waves Ship Positions

Giannis 1

Last reported at 2017-Nov-29 21:55 UTC. Time now 2017-Dec-15 00:47 UTC.
Position N 38°03' E 024°10'.
Warning: this ship's position is 15 days out of date.

Length 21 m; draft 2.4 m.

Type: Fishing. MMSI: 239079000.

Date/timePositionNaut miles runAvg speedWind from/ knotsBaromVisibWave heightAir tempDewpointWater temp
2017-Nov-29 21:55N 38°03' E 024°10'2 3.7
2017-Nov-29 21:24N 38°02' E 024°08'1 3.3
2017-Nov-29 20:59N 38°01' E 024°07'0 0.2
2017-Nov-29 20:30N 38°01' E 024°07'0 0.4
2017-Nov-29 19:50N 38°01' E 024°07'0 0.9
2017-Nov-29 19:24N 38°01' E 024°07'0 0.4
2017-Nov-29 19:00N 38°01' E 024°07'0 0.5
2017-Nov-29 18:22N 38°01' E 024°07'0 0.1
2017-Nov-29 17:09N 38°01' E 024°07'0 0.9
2017-Nov-29 16:37N 38°01' E 024°07'0 3.9
2017-Nov-29 16:30N 38°01' E 024°07'0 0.3
2017-Nov-29 15:57N 38°01' E 024°07'3 6.6
2017-Nov-29 15:30N 38°01' E 024°03'4 0.2
2017-Nov-28 21:41N 38°02' E 024°08'0 1.2
2017-Nov-28 21:23N 38°02' E 024°08'1 0.4
2017-Nov-28 19:20N 38°02' E 024°08'0 0.2
2017-Nov-28 16:52N 38°02' E 024°09'1 1.3
2017-Nov-28 16:07N 38°01' E 024°09'1 4.2
2017-Nov-28 15:59N 38°01' E 024°08'2 0.1
2017-Nov-27 23:47N 38°03' E 024°07'2 6.4
2017-Nov-27 23:27N 38°01' E 024°07'0 0.4
2017-Nov-27 22:57N 38°01' E 024°07'0 0.7
2017-Nov-27 22:17N 38°01' E 024°07'0 0.0
2017-Nov-27 20:53N 38°01' E 024°07'0 0.0
2017-Nov-27 20:24N 38°01' E 024°07'0 0.6
2017-Nov-27 19:52N 38°01' E 024°07'0 0.7
2017-Nov-27 19:18N 38°01' E 024°08'0 0.1
2017-Nov-27 16:36N 38°01' E 024°07'0 1.1
2017-Nov-27 16:28N 38°01' E 024°07'1 2.3
2017-Nov-27 15:57N 38°00' E 024°06'3 5.9
2017-Nov-27 15:30N 38°01' E 024°03'3 0.2
2017-Nov-26 22:02N 38°01' E 024°07'0 2.1
2017-Nov-26 22:00N 38°01' E 024°07'0 0.1
2017-Nov-26 17:38N 38°01' E 024°07'0 0.3
2017-Nov-26 16:36N 38°01' E 024°07'3 0.2
2017-Nov-26 00:32N 38°03' E 024°06'1 8.8
2017-Nov-26 00:26N 38°03' E 024°05'3 1.5
2017-Nov-25 22:38N 38°00' E 024°06'0 0.1
2017-Nov-25 17:14N 38°00' E 024°06'1 0.5
2017-Nov-25 16:00N 38°00' E 024°07'3 6.6
2017-Nov-25 15:30N 38°01' E 024°03'4 0.2
2017-Nov-24 19:24N 37°60' E 024°07'0 0.4
2017-Nov-24 18:58N 37°60' E 024°07'0 0.8
2017-Nov-24 18:27N 38°00' E 024°07'0 0.4
2017-Nov-24 17:58N 37°60' E 024°07'1 0.4
2017-Nov-24 15:49N 38°00' E 024°06'2 6.8
2017-Nov-24 15:27N 38°01' E 024°03'2 0.1
2017-Nov-23 23:40N 38°02' E 024°01'1 1.9
2017-Nov-23 23:23N 38°01' E 024°01'5 2.0
2017-Nov-23 20:56N 37°58' E 024°06'0 0.5
2017-Nov-23 20:29N 37°58' E 024°06'0 0.8
2017-Nov-23 19:53N 37°58' E 024°06'0 0.0
2017-Nov-23 19:23N 37°58' E 024°06'0 0.0
2017-Nov-23 18:50N 37°58' E 024°06'0 0.0
2017-Nov-23 18:30N 37°58' E 024°06'0 0.0
2017-Nov-23 17:57N 37°58' E 024°06'0 0.0
2017-Nov-23 17:23N 37°58' E 024°05'3 1.5
2017-Nov-23 15:34N 37°60' E 024°03'0 7.1
2017-Nov-23 15:30N 38°00' E 024°03'  
2017-Nov-19 23:08N 38°06' E 024°04'5 4.3
2017-Nov-19 21:59N 38°01' E 024°01'  
Track history (hours):
 
Tides and Currents Weather Stations Pressure Air Temp Water Temp Dewpoint Dewpoint Depression Visibility Wind Speed Wind Dir Waves Ship Positions

Giannis 1

Last reported at 2017-Nov-29 21:55 UTC. Time now 2017-Dec-15 00:47 UTC.
Position N 38°03' E 024°10'.
Warning: this ship's position is 15 days out of date.

Length 21 m; draft 2.4 m.

Type: Fishing. MMSI: 239079000.

Date/timePositionNaut miles runAvg speedWind from/ knotsBaromVisibWave heightAir tempDewpointWater temp
2017-Nov-29 21:55N 38°03' E 024°10'2 3.7
2017-Nov-29 21:24N 38°02' E 024°08'1 3.3
2017-Nov-29 20:59N 38°01' E 024°07'0 0.2
2017-Nov-29 20:30N 38°01' E 024°07'0 0.4
2017-Nov-29 19:50N 38°01' E 024°07'0 0.9
2017-Nov-29 19:24N 38°01' E 024°07'0 0.4
2017-Nov-29 19:00N 38°01' E 024°07'0 0.5
2017-Nov-29 18:22N 38°01' E 024°07'0 0.1
2017-Nov-29 17:09N 38°01' E 024°07'0 0.9
2017-Nov-29 16:37N 38°01' E 024°07'0 3.9
2017-Nov-29 16:30N 38°01' E 024°07'0 0.3
2017-Nov-29 15:57N 38°01' E 024°07'3 6.6
2017-Nov-29 15:30N 38°01' E 024°03'4 0.2
2017-Nov-28 21:41N 38°02' E 024°08'0 1.2
2017-Nov-28 21:23N 38°02' E 024°08'1 0.4
2017-Nov-28 19:20N 38°02' E 024°08'0 0.2
2017-Nov-28 16:52N 38°02' E 024°09'1 1.3
2017-Nov-28 16:07N 38°01' E 024°09'1 4.2
2017-Nov-28 15:59N 38°01' E 024°08'2 0.1
2017-Nov-27 23:47N 38°03' E 024°07'2 6.4
2017-Nov-27 23:27N 38°01' E 024°07'0 0.4
2017-Nov-27 22:57N 38°01' E 024°07'0 0.7
2017-Nov-27 22:17N 38°01' E 024°07'0 0.0
2017-Nov-27 20:53N 38°01' E 024°07'0 0.0
2017-Nov-27 20:24N 38°01' E 024°07'0 0.6
2017-Nov-27 19:52N 38°01' E 024°07'0 0.7
2017-Nov-27 19:18N 38°01' E 024°08'0 0.1
2017-Nov-27 16:36N 38°01' E 024°07'0 1.1
2017-Nov-27 16:28N 38°01' E 024°07'1 2.3
2017-Nov-27 15:57N 38°00' E 024°06'3 5.9
2017-Nov-27 15:30N 38°01' E 024°03'3 0.2
2017-Nov-26 22:02N 38°01' E 024°07'0 2.1
2017-Nov-26 22:00N 38°01' E 024°07'0 0.1
2017-Nov-26 17:38N 38°01' E 024°07'0 0.3
2017-Nov-26 16:36N 38°01' E 024°07'3 0.2
2017-Nov-26 00:32N 38°03' E 024°06'1 8.8
2017-Nov-26 00:26N 38°03' E 024°05'3 1.5
2017-Nov-25 22:38N 38°00' E 024°06'0 0.1
2017-Nov-25 17:14N 38°00' E 024°06'1 0.5
2017-Nov-25 16:00N 38°00' E 024°07'3 6.6
2017-Nov-25 15:30N 38°01' E 024°03'4 0.2
2017-Nov-24 19:24N 37°60' E 024°07'0 0.4
2017-Nov-24 18:58N 37°60' E 024°07'0 0.8
2017-Nov-24 18:27N 38°00' E 024°07'0 0.4
2017-Nov-24 17:58N 37°60' E 024°07'1 0.4
2017-Nov-24 15:49N 38°00' E 024°06'2 6.8
2017-Nov-24 15:27N 38°01' E 024°03'2 0.1
2017-Nov-23 23:40N 38°02' E 024°01'1 1.9
2017-Nov-23 23:23N 38°01' E 024°01'5 2.0
2017-Nov-23 20:56N 37°58' E 024°06'0 0.5
2017-Nov-23 20:29N 37°58' E 024°06'0 0.8
2017-Nov-23 19:53N 37°58' E 024°06'0 0.0
2017-Nov-23 19:23N 37°58' E 024°06'0 0.0
2017-Nov-23 18:50N 37°58' E 024°06'0 0.0
2017-Nov-23 18:30N 37°58' E 024°06'0 0.0
2017-Nov-23 17:57N 37°58' E 024°06'0 0.0
2017-Nov-23 17:23N 37°58' E 024°05'3 1.5
2017-Nov-23 15:34N 37°60' E 024°03'0 7.1
2017-Nov-23 15:30N 38°00' E 024°03'  
2017-Nov-19 23:08N 38°06' E 024°04'5 4.3
2017-Nov-19 21:59N 38°01' E 024°01'  

Dump ship's entire track history